sensor_id;sensor_type;location;lat;lon;timestamp;pressure;altitude;pressure_sealevel;temperature;humidity
62789;BME280;66401;42.016;21.454;2024-03-08T00:01:14;98322.72;;;7.96;73.46
62789;BME280;66401;42.016;21.454;2024-03-08T00:03:41;98322.22;;;8.01;73.49
62789;BME280;66401;42.016;21.454;2024-03-08T00:06:07;98321.16;;;7.87;73.72
62789;BME280;66401;42.016;21.454;2024-03-08T00:08:32;98329.47;;;7.83;74.23
62789;BME280;66401;42.016;21.454;2024-03-08T00:10:58;98310.41;;;7.75;73.60
62789;BME280;66401;42.016;21.454;2024-03-08T00:13:24;98321.13;;;7.72;74.59
62789;BME280;66401;42.016;21.454;2024-03-08T00:15:50;98303.47;;;7.45;74.74
62789;BME280;66401;42.016;21.454;2024-03-08T00:18:16;98315.69;;;7.59;75.56
62789;BME280;66401;42.016;21.454;2024-03-08T00:20:42;98311.44;;;7.66;74.92
62789;BME280;66401;42.016;21.454;2024-03-08T00:23:09;98316.25;;;7.69;74.88
62789;BME280;66401;42.016;21.454;2024-03-08T00:25:36;98307.91;;;7.59;75.17
62789;BME280;66401;42.016;21.454;2024-03-08T00:28:01;98310.53;;;7.51;75.68
62789;BME280;66401;42.016;21.454;2024-03-08T00:30:30;98315.84;;;7.58;75.66
62789;BME280;66401;42.016;21.454;2024-03-08T00:32:56;98306.75;;;7.62;75.59
62789;BME280;66401;42.016;21.454;2024-03-08T00:35:22;98319.78;;;7.77;75.29
62789;BME280;66401;42.016;21.454;2024-03-08T00:37:48;98315.63;;;7.67;74.87
62789;BME280;66401;42.016;21.454;2024-03-08T00:40:14;98309.25;;;7.55;76.08
62789;BME280;66401;42.016;21.454;2024-03-08T00:42:40;98302.13;;;7.49;76.88
62789;BME280;66401;42.016;21.454;2024-03-08T00:45:07;98307.66;;;7.46;77.27
62789;BME280;66401;42.016;21.454;2024-03-08T00:47:32;98305.47;;;7.35;77.20
62789;BME280;66401;42.016;21.454;2024-03-08T00:49:58;98312.53;;;7.41;77.65
62789;BME280;66401;42.016;21.454;2024-03-08T00:52:24;98302.34;;;7.39;77.67
62789;BME280;66401;42.016;21.454;2024-03-08T00:54:50;98314.00;;;7.43;77.08
62789;BME280;66401;42.016;21.454;2024-03-08T00:57:15;98314.28;;;7.49;77.57
62789;BME280;66401;42.016;21.454;2024-03-08T00:59:41;98310.53;;;7.51;77.12
62789;BME280;66401;42.016;21.454;2024-03-08T01:02:07;98305.56;;;7.41;76.95
62789;BME280;66401;42.016;21.454;2024-03-08T01:04:34;98308.97;;;7.42;77.97
62789;BME280;66401;42.016;21.454;2024-03-08T01:07:00;98316.88;;;7.49;77.28
62789;BME280;66401;42.016;21.454;2024-03-08T01:09:26;98295.09;;;7.35;77.82
62789;BME280;66401;42.016;21.454;2024-03-08T01:11:52;98310.31;;;6.99;78.35
62789;BME280;66401;42.016;21.454;2024-03-08T01:14:20;98318.25;;;6.97;79.32
62789;BME280;66401;42.016;21.454;2024-03-08T01:16:48;98308.22;;;6.94;79.45
62789;BME280;66401;42.016;21.454;2024-03-08T01:19:14;98302.72;;;6.97;79.17
62789;BME280;66401;42.016;21.454;2024-03-08T01:21:40;98303.03;;;6.94;79.09
62789;BME280;66401;42.016;21.454;2024-03-08T01:24:07;98308.50;;;7.07;78.68
62789;BME280;66401;42.016;21.454;2024-03-08T01:26:32;98311.91;;;7.08;78.93
62789;BME280;66401;42.016;21.454;2024-03-08T01:29:00;98312.25;;;7.05;78.92
62789;BME280;66401;42.016;21.454;2024-03-08T01:31:25;98316.31;;;6.99;78.91
62789;BME280;66401;42.016;21.454;2024-03-08T01:33:51;98312.13;;;6.90;79.78
62789;BME280;66401;42.016;21.454;2024-03-08T01:36:16;98313.13;;;6.81;80.75
62789;BME280;66401;42.016;21.454;2024-03-08T01:38:44;98317.56;;;6.48;82.12
62789;BME280;66401;42.016;21.454;2024-03-08T01:41:10;98313.19;;;6.56;81.37
62789;BME280;66401;42.016;21.454;2024-03-08T01:43:35;98309.81;;;6.48;81.64
62789;BME280;66401;42.016;21.454;2024-03-08T01:46:01;98323.84;;;6.62;81.07
62789;BME280;66401;42.016;21.454;2024-03-08T01:48:30;98332.41;;;6.54;81.54
62789;BME280;66401;42.016;21.454;2024-03-08T01:50:57;98314.94;;;6.56;81.71
62789;BME280;66401;42.016;21.454;2024-03-08T01:53:24;98303.13;;;6.62;80.66
62789;BME280;66401;42.016;21.454;2024-03-08T01:55:52;98323.31;;;6.74;80.98
62789;BME280;66401;42.016;21.454;2024-03-08T01:58:19;98311.16;;;6.83;80.24
62789;BME280;66401;42.016;21.454;2024-03-08T02:00:47;98311.03;;;6.76;79.60
62789;BME280;66401;42.016;21.454;2024-03-08T02:03:15;98305.19;;;6.82;79.52
62789;BME280;66401;42.016;21.454;2024-03-08T02:05:41;98316.50;;;6.89;79.27
62789;BME280;66401;42.016;21.454;2024-03-08T02:08:07;98311.16;;;6.83;80.36
62789;BME280;66401;42.016;21.454;2024-03-08T02:10:38;98328.00;;;6.87;79.60
62789;BME280;66401;42.016;21.454;2024-03-08T02:13:04;98326.03;;;6.89;79.73
62789;BME280;66401;42.016;21.454;2024-03-08T02:15:55;98326.03;;;6.89;79.82
62789;BME280;66401;42.016;21.454;2024-03-08T02:18:23;98336.06;;;6.92;80.34
62789;BME280;66401;42.016;21.454;2024-03-08T02:20:53;98333.19;;;6.79;80.79
62789;BME280;66401;42.016;21.454;2024-03-08T02:23:22;98326.75;;;6.67;81.08
62789;BME280;66401;42.016;21.454;2024-03-08T02:25:48;98325.94;;;6.66;82.32
62789;BME280;66401;42.016;21.454;2024-03-08T02:28:14;98333.66;;;6.74;81.66
62789;BME280;66401;42.016;21.454;2024-03-08T02:30:40;98327.38;;;6.77;80.76
62789;BME280;66401;42.016;21.454;2024-03-08T02:33:06;98336.13;;;6.76;80.65
62789;BME280;66401;42.016;21.454;2024-03-08T02:35:34;98330.91;;;6.84;79.90
62789;BME280;66401;42.016;21.454;2024-03-08T02:38:01;98315.91;;;6.71;79.83
62789;BME280;66401;42.016;21.454;2024-03-08T02:40:27;98342.91;;;6.77;80.62
62789;BME280;66401;42.016;21.454;2024-03-08T02:42:52;98330.25;;;6.82;80.30
62789;BME280;66401;42.016;21.454;2024-03-08T02:45:18;98340.16;;;6.78;80.89
62789;BME280;66401;42.016;21.454;2024-03-08T02:47:43;98339.88;;;6.57;81.30
62789;BME280;66401;42.016;21.454;2024-03-08T02:50:09;98328.38;;;6.51;83.03
62789;BME280;66401;42.016;21.454;2024-03-08T02:52:35;98333.06;;;6.64;81.82
62789;BME280;66401;42.016;21.454;2024-03-08T02:55:01;98331.75;;;6.68;81.26
62789;BME280;66401;42.016;21.454;2024-03-08T02:57:27;98327.41;;;6.69;80.92
62789;BME280;66401;42.016;21.454;2024-03-08T02:59:55;98331.94;;;6.67;80.58
62789;BME280;66401;42.016;21.454;2024-03-08T03:02:21;98340.97;;;6.63;80.89
62789;BME280;66401;42.016;21.454;2024-03-08T03:04:48;98339.38;;;6.62;81.04
62789;BME280;66401;42.016;21.454;2024-03-08T03:07:13;98344.22;;;6.65;80.42
62789;BME280;66401;42.016;21.454;2024-03-08T03:09:39;98340.34;;;6.60;80.13
62789;BME280;66401;42.016;21.454;2024-03-08T03:12:04;98346.84;;;6.56;80.76
62789;BME280;66401;42.016;21.454;2024-03-08T03:14:35;98340.69;;;6.33;82.08
62789;BME280;66401;42.016;21.454;2024-03-08T03:17:06;98338.78;;;6.19;83.25
62789;BME280;66401;42.016;21.454;2024-03-08T03:19:32;98349.75;;;6.13;83.04
62789;BME280;66401;42.016;21.454;2024-03-08T03:21:57;98337.78;;;6.12;82.60
62789;BME280;66401;42.016;21.454;2024-03-08T03:24:23;98347.00;;;6.14;83.33
62789;BME280;66401;42.016;21.454;2024-03-08T03:26:49;98351.69;;;6.11;83.31
62789;BME280;66401;42.016;21.454;2024-03-08T03:29:15;98344.91;;;6.01;83.14
62789;BME280;66401;42.016;21.454;2024-03-08T03:31:42;98354.59;;;6.08;83.28
62789;BME280;66401;42.016;21.454;2024-03-08T03:34:12;98346.81;;;6.08;83.89
62789;BME280;66401;42.016;21.454;2024-03-08T03:36:38;98337.47;;;5.98;82.94
62789;BME280;66401;42.016;21.454;2024-03-08T03:39:08;98352.50;;;6.11;83.41
62789;BME280;66401;42.016;21.454;2024-03-08T03:41:41;98342.00;;;6.05;84.25
62789;BME280;66401;42.016;21.454;2024-03-08T03:44:07;98353.94;;;6.14;83.90
62789;BME280;66401;42.016;21.454;2024-03-08T03:46:33;98355.72;;;6.13;82.93
62789;BME280;66401;42.016;21.454;2024-03-08T03:48:58;98354.44;;;6.01;84.70
62789;BME280;66401;42.016;21.454;2024-03-08T03:51:24;98359.09;;;5.97;84.72
62789;BME280;66401;42.016;21.454;2024-03-08T03:53:50;98341.47;;;5.85;84.84
62789;BME280;66401;42.016;21.454;2024-03-08T03:56:15;98331.41;;;5.65;84.53
62789;BME280;66401;42.016;21.454;2024-03-08T03:58:41;98344.69;;;5.70;84.83
62789;BME280;66401;42.016;21.454;2024-03-08T04:01:07;98351.75;;;5.68;84.96
62789;BME280;66401;42.016;21.454;2024-03-08T04:03:33;98356.75;;;5.54;86.24
62789;BME280;66401;42.016;21.454;2024-03-08T04:05:58;98341.81;;;5.39;87.38
62789;BME280;66401;42.016;21.454;2024-03-08T04:08:24;98359.97;;;5.56;86.37
62789;BME280;66401;42.016;21.454;2024-03-08T04:10:50;98366.25;;;5.53;86.67
62789;BME280;66401;42.016;21.454;2024-03-08T04:13:16;98369.47;;;5.47;87.25
62789;BME280;66401;42.016;21.454;2024-03-08T04:15:41;98363.84;;;5.52;87.06
62789;BME280;66401;42.016;21.454;2024-03-08T04:18:09;98369.66;;;5.54;87.16
62789;BME280;66401;42.016;21.454;2024-03-08T04:20:35;98380.03;;;5.62;87.34
62789;BME280;66401;42.016;21.454;2024-03-08T04:23:01;98369.84;;;5.60;87.30
62789;BME280;66401;42.016;21.454;2024-03-08T04:25:27;98379.06;;;5.63;87.62
62789;BME280;66401;42.016;21.454;2024-03-08T04:27:53;98375.47;;;5.56;87.74
62789;BME280;66401;42.016;21.454;2024-03-08T04:30:18;98382.56;;;5.54;88.74
62789;BME280;66401;42.016;21.454;2024-03-08T04:32:46;98382.91;;;5.59;87.67
62789;BME280;66401;42.016;21.454;2024-03-08T04:35:12;98380.94;;;5.44;88.90
62789;BME280;66401;42.016;21.454;2024-03-08T04:37:38;98388.72;;;5.53;88.21
62789;BME280;66401;42.016;21.454;2024-03-08T04:40:04;98382.69;;;5.44;88.65
62789;BME280;66401;42.016;21.454;2024-03-08T04:42:30;98396.44;;;5.44;89.79
62789;BME280;66401;42.016;21.454;2024-03-08T04:44:58;98400.91;;;5.34;90.24
62789;BME280;66401;42.016;21.454;2024-03-08T04:47:23;98374.72;;;5.29;89.77
62789;BME280;66401;42.016;21.454;2024-03-08T04:49:50;98393.50;;;5.39;89.41
62789;BME280;66401;42.016;21.454;2024-03-08T04:52:15;98395.41;;;5.37;91.03
62789;BME280;66401;42.016;21.454;2024-03-08T04:54:41;98398.66;;;5.39;90.16
62789;BME280;66401;42.016;21.454;2024-03-08T04:57:07;98408.97;;;5.39;89.17
62789;BME280;66401;42.016;21.454;2024-03-08T04:59:32;98409.59;;;5.25;91.27
62789;BME280;66401;42.016;21.454;2024-03-08T05:01:58;98408.28;;;5.29;90.27
62789;BME280;66401;42.016;21.454;2024-03-08T05:04:23;98417.38;;;5.33;89.74
62789;BME280;66401;42.016;21.454;2024-03-08T05:06:49;98415.72;;;5.24;89.31
62789;BME280;66401;42.016;21.454;2024-03-08T05:09:15;98430.13;;;5.35;90.09
62789;BME280;66401;42.016;21.454;2024-03-08T05:11:44;98436.41;;;5.32;88.80
62789;BME280;66401;42.016;21.454;2024-03-08T05:14:10;98428.41;;;5.43;88.17
62789;BME280;66401;42.016;21.454;2024-03-08T05:16:36;98438.75;;;5.52;88.02
62789;BME280;66401;42.016;21.454;2024-03-08T05:19:02;98438.09;;;5.50;86.02
62789;BME280;66401;42.016;21.454;2024-03-08T05:21:28;98440.38;;;5.53;86.74
62789;BME280;66401;42.016;21.454;2024-03-08T05:23:54;98439.09;;;5.57;86.66
62789;BME280;66401;42.016;21.454;2024-03-08T05:26:20;98445.53;;;5.53;86.37
62789;BME280;66401;42.016;21.454;2024-03-08T05:28:45;98453.34;;;5.61;86.08
62789;BME280;66401;42.016;21.454;2024-03-08T05:31:20;98431.97;;;5.51;84.86
62789;BME280;66401;42.016;21.454;2024-03-08T05:33:49;98465.78;;;5.65;86.30
62789;BME280;66401;42.016;21.454;2024-03-08T05:36:15;98460.13;;;5.62;85.26
62789;BME280;66401;42.016;21.454;2024-03-08T05:38:43;98460.41;;;5.59;86.42
62789;BME280;66401;42.016;21.454;2024-03-08T05:41:09;98462.66;;;5.54;86.52
62789;BME280;66401;42.016;21.454;2024-03-08T05:43:35;98467.84;;;5.54;87.26
62789;BME280;66401;42.016;21.454;2024-03-08T05:46:00;98471.66;;;5.50;86.79
62789;BME280;66401;42.016;21.454;2024-03-08T05:48:26;98462.78;;;5.44;87.67
62789;BME280;66401;42.016;21.454;2024-03-08T05:50:53;98478.16;;;5.54;87.69
62789;BME280;66401;42.016;21.454;2024-03-08T05:53:18;98484.34;;;5.61;88.45
62789;BME280;66401;42.016;21.454;2024-03-08T05:55:44;98486.94;;;5.61;87.73
62789;BME280;66401;42.016;21.454;2024-03-08T05:58:10;98488.44;;;5.71;87.45
62789;BME280;66401;42.016;21.454;2024-03-08T06:00:36;98488.63;;;5.86;87.06
62789;BME280;66401;42.016;21.454;2024-03-08T06:03:02;98491.75;;;5.98;87.49
62789;BME280;66401;42.016;21.454;2024-03-08T06:05:28;98501.00;;;6.00;87.41
62789;BME280;66401;42.016;21.454;2024-03-08T06:07:53;98488.03;;;5.92;87.80
62789;BME280;66401;42.016;21.454;2024-03-08T06:10:19;98484.84;;;6.07;88.19
62789;BME280;66401;42.016;21.454;2024-03-08T06:12:44;98485.69;;;6.15;86.52
62789;BME280;66401;42.016;21.454;2024-03-08T06:15:10;98491.69;;;6.32;85.17
62789;BME280;66401;42.016;21.454;2024-03-08T06:17:40;98489.78;;;6.42;85.16
62789;BME280;66401;42.016;21.454;2024-03-08T06:20:06;98486.41;;;6.50;84.88
62789;BME280;66401;42.016;21.454;2024-03-08T06:22:37;98486.72;;;6.47;84.32
62789;BME280;66401;42.016;21.454;2024-03-08T06:25:09;98475.09;;;6.59;83.37
62789;BME280;66401;42.016;21.454;2024-03-08T06:27:36;98490.78;;;6.82;82.83
62789;BME280;66401;42.016;21.454;2024-03-08T06:30:02;98498.53;;;6.74;81.95
62789;BME280;66401;42.016;21.454;2024-03-08T06:32:30;98497.25;;;6.86;82.03
62789;BME280;66401;42.016;21.454;2024-03-08T06:34:56;98498.72;;;6.88;81.86
62789;BME280;66401;42.016;21.454;2024-03-08T06:37:21;98503.72;;;6.98;81.49
62789;BME280;66401;42.016;21.454;2024-03-08T06:39:50;98501.59;;;7.02;80.53
62789;BME280;66401;42.016;21.454;2024-03-08T06:42:17;98501.44;;;7.11;80.33
62789;BME280;66401;42.016;21.454;2024-03-08T06:44:42;98500.78;;;7.17;80.71
62789;BME280;66401;42.016;21.454;2024-03-08T06:47:15;98505.91;;;7.42;81.78
62789;BME280;66401;42.016;21.454;2024-03-08T06:49:44;98500.69;;;7.66;81.12
62789;BME280;66401;42.016;21.454;2024-03-08T06:52:10;98518.91;;;7.81;79.18
62789;BME280;66401;42.016;21.454;2024-03-08T06:54:36;98508.97;;;8.01;77.01
62789;BME280;66401;42.016;21.454;2024-03-08T06:57:05;98464.97;;;7.77;74.99
62789;BME280;66401;42.016;21.454;2024-03-08T06:59:31;98515.41;;;8.13;75.16
62789;BME280;66401;42.016;21.454;2024-03-08T07:01:57;98514.47;;;8.37;75.19
62789;BME280;66401;42.016;21.454;2024-03-08T07:04:25;98510.09;;;8.29;74.16
62789;BME280;66401;42.016;21.454;2024-03-08T07:06:57;98517.84;;;8.46;73.39
62789;BME280;66401;42.016;21.454;2024-03-08T07:09:24;98508.66;;;8.27;72.89
62789;BME280;66401;42.016;21.454;2024-03-08T07:11:52;98521.88;;;8.48;73.91
62789;BME280;66401;42.016;21.454;2024-03-08T07:14:23;98511.03;;;8.45;73.19
62789;BME280;66401;42.016;21.454;2024-03-08T07:16:49;98516.97;;;8.53;72.64
62789;BME280;66401;42.016;21.454;2024-03-08T07:19:15;98515.91;;;8.71;72.90
62789;BME280;66401;42.016;21.454;2024-03-08T07:21:41;98517.84;;;8.92;71.74
62789;BME280;66401;42.016;21.454;2024-03-08T07:24:07;98521.94;;;9.09;71.45
62789;BME280;66401;42.016;21.454;2024-03-08T07:26:42;98514.31;;;9.22;72.76
62789;BME280;66401;42.016;21.454;2024-03-08T07:29:07;98512.47;;;9.60;70.24
62789;BME280;66401;42.016;21.454;2024-03-08T07:31:33;98510.13;;;9.80;69.13
62789;BME280;66401;42.016;21.454;2024-03-08T07:34:21;98515.03;;;10.34;69.17
62789;BME280;66401;42.016;21.454;2024-03-08T07:36:46;98525.88;;;10.38;64.56
62789;BME280;66401;42.016;21.454;2024-03-08T07:39:12;98527.09;;;10.06;65.11
62789;BME280;66401;42.016;21.454;2024-03-08T07:41:39;98523.81;;;10.03;66.85
62789;BME280;66401;42.016;21.454;2024-03-08T07:44:07;98523.47;;;10.36;65.32
62789;BME280;66401;42.016;21.454;2024-03-08T07:46:33;98524.53;;;10.63;64.43
62789;BME280;66401;42.016;21.454;2024-03-08T07:49:03;98518.75;;;10.46;65.26
62789;BME280;66401;42.016;21.454;2024-03-08T07:51:28;98517.44;;;10.36;66.83
62789;BME280;66401;42.016;21.454;2024-03-08T07:53:54;98531.00;;;10.31;65.07
62789;BME280;66401;42.016;21.454;2024-03-08T07:56:20;98524.94;;;10.24;65.61
62789;BME280;66401;42.016;21.454;2024-03-08T07:58:47;98523.34;;;10.66;65.04
62789;BME280;66401;42.016;21.454;2024-03-08T08:01:17;98509.75;;;10.70;64.49
62789;BME280;66401;42.016;21.454;2024-03-08T08:03:43;98517.84;;;11.25;63.71
62789;BME280;66401;42.016;21.454;2024-03-08T08:06:08;98509.59;;;11.49;63.33
62789;BME280;66401;42.016;21.454;2024-03-08T08:08:35;98511.78;;;12.35;59.81
62789;BME280;66401;42.016;21.454;2024-03-08T08:11:02;98515.72;;;13.58;58.06
62789;BME280;66401;42.016;21.454;2024-03-08T08:13:28;98517.44;;;14.35;55.27
62789;BME280;66401;42.016;21.454;2024-03-08T08:15:57;98511.16;;;15.74;50.65
62789;BME280;66401;42.016;21.454;2024-03-08T08:18:23;98508.81;;;16.02;49.63
62789;BME280;66401;42.016;21.454;2024-03-08T08:20:51;98501.09;;;15.28;51.09
62789;BME280;66401;42.016;21.454;2024-03-08T08:23:17;98505.97;;;15.42;50.22
62789;BME280;66401;42.016;21.454;2024-03-08T08:25:45;98505.59;;;13.81;53.26
62789;BME280;66401;42.016;21.454;2024-03-08T08:28:10;98507.41;;;14.95;51.70
62789;BME280;66401;42.016;21.454;2024-03-08T08:30:38;98501.47;;;16.71;47.86
62789;BME280;66401;42.016;21.454;2024-03-08T08:33:04;98497.59;;;17.56;45.38
62789;BME280;66401;42.016;21.454;2024-03-08T08:35:31;98500.38;;;18.70;42.72
62789;BME280;66401;42.016;21.454;2024-03-08T08:37:57;98490.50;;;16.98;45.06
62789;BME280;66401;42.016;21.454;2024-03-08T08:40:24;98491.81;;;15.68;46.54
62789;BME280;66401;42.016;21.454;2024-03-08T08:42:54;98492.69;;;14.69;50.26
62789;BME280;66401;42.016;21.454;2024-03-08T08:45:19;98488.78;;;16.50;47.75
62789;BME280;66401;42.016;21.454;2024-03-08T08:47:45;98483.09;;;15.74;48.06
62789;BME280;66401;42.016;21.454;2024-03-08T08:50:12;98489.38;;;15.73;48.09
62789;BME280;66401;42.016;21.454;2024-03-08T08:52:38;98478.06;;;17.28;47.02
62789;BME280;66401;42.016;21.454;2024-03-08T08:55:04;98483.44;;;18.09;42.65
62789;BME280;66401;42.016;21.454;2024-03-08T08:57:32;98485.00;;;16.87;44.54
62789;BME280;66401;42.016;21.454;2024-03-08T08:59:58;98488.16;;;16.36;45.46
62789;BME280;66401;42.016;21.454;2024-03-08T09:02:25;98479.16;;;14.97;48.75
62789;BME280;66401;42.016;21.454;2024-03-08T09:04:51;98484.56;;;14.46;49.87
62789;BME280;66401;42.016;21.454;2024-03-08T09:07:17;98485.25;;;13.83;52.47
62789;BME280;66401;42.016;21.454;2024-03-08T09:09:44;98483.97;;;13.21;53.41
62789;BME280;66401;42.016;21.454;2024-03-08T09:12:10;98478.22;;;12.25;56.74
62789;BME280;66401;42.016;21.454;2024-03-08T09:14:41;98478.25;;;12.31;56.09
62789;BME280;66401;42.016;21.454;2024-03-08T09:17:08;98469.88;;;12.76;55.81
62789;BME280;66401;42.016;21.454;2024-03-08T09:19:36;98441.63;;;14.72;49.90
62789;BME280;66401;42.016;21.454;2024-03-08T09:22:03;98479.53;;;17.24;44.40
62789;BME280;66401;42.016;21.454;2024-03-08T09:24:29;98478.69;;;21.40;37.83
62789;BME280;66401;42.016;21.454;2024-03-08T09:26:56;98475.38;;;22.33;33.65
62789;BME280;66401;42.016;21.454;2024-03-08T09:29:24;98481.81;;;21.32;35.01
62789;BME280;66401;42.016;21.454;2024-03-08T09:31:49;98478.56;;;22.45;33.89
62789;BME280;66401;42.016;21.454;2024-03-08T09:34:15;98466.19;;;18.46;37.49
62789;BME280;66401;42.016;21.454;2024-03-08T09:36:40;98467.91;;;20.78;35.17
62789;BME280;66401;42.016;21.454;2024-03-08T09:39:07;98479.84;;;23.50;32.17
62789;BME280;66401;42.016;21.454;2024-03-08T09:41:33;98480.25;;;25.68;28.84
62789;BME280;66401;42.016;21.454;2024-03-08T09:44:00;98475.06;;;26.01;27.94
62789;BME280;66401;42.016;21.454;2024-03-08T09:46:25;98479.44;;;25.20;28.90
62789;BME280;66401;42.016;21.454;2024-03-08T09:48:58;98475.88;;;25.53;28.86
62789;BME280;66401;42.016;21.454;2024-03-08T09:51:30;98475.25;;;26.04;28.10
62789;BME280;66401;42.016;21.454;2024-03-08T09:53:58;98464.75;;;28.12;25.17
62789;BME280;66401;42.016;21.454;2024-03-08T09:56:24;98464.69;;;23.65;29.60
62789;BME280;66401;42.016;21.454;2024-03-08T09:58:50;98469.34;;;20.58;33.59
62789;BME280;66401;42.016;21.454;2024-03-08T10:01:42;98472.44;;;24.90;29.48
62789;BME280;66401;42.016;21.454;2024-03-08T10:04:09;98462.13;;;24.49;28.91
62789;BME280;66401;42.016;21.454;2024-03-08T10:06:35;98464.84;;;24.44;29.36
62789;BME280;66401;42.016;21.454;2024-03-08T10:09:01;98467.72;;;26.30;26.94
62789;BME280;66401;42.016;21.454;2024-03-08T10:11:27;98464.53;;;26.09;27.69
62789;BME280;66401;42.016;21.454;2024-03-08T10:13:54;98460.16;;;27.62;24.53
62789;BME280;66401;42.016;21.454;2024-03-08T10:16:20;98452.91;;;26.89;26.06
62789;BME280;66401;42.016;21.454;2024-03-08T10:18:46;98452.25;;;28.57;24.16
62789;BME280;66401;42.016;21.454;2024-03-08T10:21:12;98454.84;;;28.12;23.95
62789;BME280;66401;42.016;21.454;2024-03-08T10:23:39;98452.66;;;29.26;22.79
62789;BME280;66401;42.016;21.454;2024-03-08T10:26:11;98449.25;;;27.45;24.38
62789;BME280;66401;42.016;21.454;2024-03-08T10:28:41;98437.66;;;27.91;24.76
62789;BME280;66401;42.016;21.454;2024-03-08T10:31:06;98432.16;;;27.96;24.95
62789;BME280;66401;42.016;21.454;2024-03-08T10:33:35;98439.88;;;29.63;22.35
62789;BME280;66401;42.016;21.454;2024-03-08T10:36:00;98425.72;;;30.40;21.79
62789;BME280;66401;42.016;21.454;2024-03-08T10:38:26;98427.53;;;29.22;23.02
62789;BME280;66401;42.016;21.454;2024-03-08T10:40:53;98428.59;;;24.48;27.90
62789;BME280;66401;42.016;21.454;2024-03-08T10:43:23;98409.56;;;26.27;25.47
62789;BME280;66401;42.016;21.454;2024-03-08T10:48:43;98422.16;;;28.38;23.19
62789;BME280;66401;42.016;21.454;2024-03-08T10:51:11;98423.19;;;28.14;23.67
62789;BME280;66401;42.016;21.454;2024-03-08T10:53:38;98407.91;;;28.29;22.87
62789;BME280;66401;42.016;21.454;2024-03-08T10:56:07;98402.97;;;29.38;22.08
62789;BME280;66401;42.016;21.454;2024-03-08T10:58:35;98387.22;;;27.29;23.73
62789;BME280;66401;42.016;21.454;2024-03-08T11:01:02;98399.81;;;26.17;25.46
62789;BME280;66401;42.016;21.454;2024-03-08T11:06:07;98390.59;;;27.49;25.46
62789;BME280;66401;42.016;21.454;2024-03-08T11:08:37;98382.59;;;27.35;23.43
62789;BME280;66401;42.016;21.454;2024-03-08T11:11:04;98393.88;;;28.76;23.14
62789;BME280;66401;42.016;21.454;2024-03-08T11:13:42;98386.19;;;29.80;21.88
62789;BME280;66401;42.016;21.454;2024-03-08T11:16:12;98380.03;;;29.97;20.79
62789;BME280;66401;42.016;21.454;2024-03-08T11:19:46;98371.25;;;26.18;24.13
62789;BME280;66401;42.016;21.454;2024-03-08T11:21:46;98371.28;;;28.46;23.14
62789;BME280;66401;42.016;21.454;2024-03-08T11:24:13;98367.09;;;28.54;22.91
62789;BME280;66401;42.016;21.454;2024-03-08T11:26:40;98349.28;;;29.29;22.11
62789;BME280;66401;42.016;21.454;2024-03-08T11:32:14;98347.84;;;31.17;19.34
62789;BME280;66401;42.016;21.454;2024-03-08T11:34:42;98342.47;;;29.14;21.39
62789;BME280;66401;42.016;21.454;2024-03-08T11:37:12;98346.81;;;28.93;21.64
62789;BME280;66401;42.016;21.454;2024-03-08T11:39:54;98344.47;;;28.69;21.57
62789;BME280;66401;42.016;21.454;2024-03-08T11:42:25;98354.63;;;30.12;20.39
62789;BME280;66401;42.016;21.454;2024-03-08T11:44:52;98342.28;;;29.59;21.16
62789;BME280;66401;42.016;21.454;2024-03-08T11:47:18;98336.78;;;29.73;19.73
62789;BME280;66401;42.016;21.454;2024-03-08T11:49:44;98330.13;;;27.98;21.99
62789;BME280;66401;42.016;21.454;2024-03-08T11:52:16;98342.75;;;29.87;20.45
62789;BME280;66401;42.016;21.454;2024-03-08T11:54:43;98329.59;;;30.93;19.71
62789;BME280;66401;42.016;21.454;2024-03-08T11:57:13;98333.00;;;29.08;20.15
62789;BME280;66401;42.016;21.454;2024-03-08T11:59:38;98330.31;;;27.65;22.45
62789;BME280;66401;42.016;21.454;2024-03-08T12:02:05;98332.88;;;29.30;20.10
62789;BME280;66401;42.016;21.454;2024-03-08T12:04:32;98334.38;;;29.80;19.97
62789;BME280;66401;42.016;21.454;2024-03-08T12:07:01;98318.03;;;29.16;19.91
62789;BME280;66401;42.016;21.454;2024-03-08T12:09:35;98326.97;;;25.98;22.80
62789;BME280;66401;42.016;21.454;2024-03-08T12:12:02;98317.81;;;24.52;25.28
62789;BME280;66401;42.016;21.454;2024-03-08T12:14:29;98325.09;;;25.18;24.98
62789;BME280;66401;42.016;21.454;2024-03-08T12:16:55;98323.69;;;25.87;23.30
62789;BME280;66401;42.016;21.454;2024-03-08T12:19:20;98301.06;;;26.91;22.88
62789;BME280;66401;42.016;21.454;2024-03-08T12:21:47;98295.63;;;27.60;22.02
62789;BME280;66401;42.016;21.454;2024-03-08T12:24:16;98304.75;;;26.35;23.36
62789;BME280;66401;42.016;21.454;2024-03-08T12:26:47;98307.28;;;24.37;24.14
62789;BME280;66401;42.016;21.454;2024-03-08T12:29:22;98290.63;;;22.57;26.84
62789;BME280;66401;42.016;21.454;2024-03-08T12:31:54;98296.22;;;23.41;26.00
62789;BME280;66401;42.016;21.454;2024-03-08T12:34:19;98288.13;;;24.88;24.73
62789;BME280;66401;42.016;21.454;2024-03-08T12:36:46;98293.09;;;23.78;25.51
62789;BME280;66401;42.016;21.454;2024-03-08T12:39:15;98288.06;;;24.45;24.14
62789;BME280;66401;42.016;21.454;2024-03-08T12:41:41;98285.66;;;25.77;23.42
62789;BME280;66401;42.016;21.454;2024-03-08T12:44:07;98279.63;;;26.04;22.49
62789;BME280;66401;42.016;21.454;2024-03-08T12:46:37;98280.38;;;25.34;23.32
62789;BME280;66401;42.016;21.454;2024-03-08T12:49:09;98277.25;;;26.02;21.40
62789;BME280;66401;42.016;21.454;2024-03-08T12:51:36;98281.59;;;23.88;23.15
62789;BME280;66401;42.016;21.454;2024-03-08T12:54:02;98274.69;;;25.40;22.95
62789;BME280;66401;42.016;21.454;2024-03-08T12:56:31;98275.88;;;25.72;24.50
62789;BME280;66401;42.016;21.454;2024-03-08T12:59:01;98280.72;;;25.70;24.93
62789;BME280;66401;42.016;21.454;2024-03-08T13:01:28;98278.59;;;26.18;23.94
62789;BME280;66401;42.016;21.454;2024-03-08T13:03:54;98276.19;;;25.65;24.10